Time;durP1;ratioP1;P1;durP2;ratioP2;P2;SDS_P1;SDS_P2;PMS_P1;PMS_P2;Temp;Humidity;BMP_temperature;BMP_pressure;BME280_temperature;BME280_humidity;BME280_pressure;Samples;Min_cycle;Max_cycle;Signal;HPM_P1;HPM_P2
2022/02/17 00:02:24;;;;;;;18.08;7.10;;;;;;;;;;5067254;28;20458;-57
2022/02/17 00:04:50;;;;;;;15.68;5.78;;;;;;;;;;5068141;28;20632;-52
2022/02/17 00:07:16;;;;;;;18.75;5.97;;;;;;;;;;5051883;28;20598;-56
2022/02/17 00:09:42;;;;;;;14.85;5.22;;;;;;;;;;5069535;28;20094;-52
2022/02/17 00:12:08;;;;;;;14.93;5.32;;;;;;;;;;5069866;28;20621;-53
2022/02/17 00:14:34;;;;;;;13.73;5.28;;;;;;;;;;5068646;28;20020;-52
2022/02/17 00:17:00;;;;;;;17.98;6.10;;;;;;;;;;5051541;28;20032;-55
2022/02/17 00:19:26;;;;;;;15.20;5.70;;;;;;;;;;5051274;28;20230;-50
2022/02/17 00:21:52;;;;;;;19.02;5.38;;;;;;;;;;5053012;28;20558;-57
2022/02/17 00:24:19;;;;;;;18.27;5.20;;;;;;;;;;5070371;28;20115;-58
2022/02/17 00:26:45;;;;;;;14.20;5.07;;;;;;;;;;5082879;28;20086;-59
2022/02/17 00:29:12;;;;;;;14.88;5.90;;;;;;;;;;5092444;28;20040;-59
2022/02/17 00:31:38;;;;;;;15.98;5.88;;;;;;;;;;5053085;28;20591;-58
2022/02/17 00:34:04;;;;;;;17.70;6.03;;;;;;;;;;5075357;23;20049;-65
2022/02/17 00:36:31;;;;;;;15.75;5.93;;;;;;;;;;5050029;28;20033;-66
2022/02/17 00:38:57;;;;;;;15.73;5.57;;;;;;;;;;5051194;28;20385;-67
2022/02/17 00:41:24;;;;;;;19.95;8.70;;;;;;;;;;5051280;28;20024;-68
2022/02/17 00:43:50;;;;;;;19.83;11.55;;;;;;;;;;5050964;28;20448;-67
2022/02/17 00:46:16;;;;;;;16.25;10.40;;;;;;;;;;5051212;28;20036;-65
2022/02/17 00:48:42;;;;;;;21.92;11.32;;;;;;;;;;5051321;28;20032;-66
2022/02/17 00:51:08;;;;;;;17.75;10.18;;;;;;;;;;5051045;28;20076;-67
2022/02/17 00:53:34;;;;;;;17.73;9.93;;;;;;;;;;5051054;28;20021;-66
2022/02/17 00:56:00;;;;;;;18.10;8.50;;;;;;;;;;5050653;28;20458;-66
2022/02/17 00:58:26;;;;;;;18.85;8.18;;;;;;;;;;5049853;28;20067;-66
2022/02/17 01:00:52;;;;;;;18.75;7.78;;;;;;;;;;5051055;28;20116;-65
2022/02/17 01:03:18;;;;;;;17.25;7.22;;;;;;;;;;5050683;28;20496;-63
2022/02/17 01:05:44;;;;;;;23.27;7.75;;;;;;;;;;5050169;28;20052;-64
2022/02/17 01:08:10;;;;;;;15.68;6.75;;;;;;;;;;5051081;28;20061;-65
2022/02/17 01:10:36;;;;;;;16.25;8.18;;;;;;;;;;5050845;28;20090;-64
2022/02/17 01:13:02;;;;;;;20.52;7.57;;;;;;;;;;5049432;28;20025;-64
2022/02/17 01:15:28;;;;;;;20.40;6.93;;;;;;;;;;5049757;28;20020;-65
2022/02/17 01:17:54;;;;;;;19.60;8.60;;;;;;;;;;5050677;28;20013;-64
2022/02/17 01:20:20;;;;;;;17.27;7.70;;;;;;;;;;5049628;28;20106;-64
2022/02/17 01:22:46;;;;;;;18.67;8.07;;;;;;;;;;5049749;28;20390;-65
2022/02/17 01:25:13;;;;;;;17.38;7.53;;;;;;;;;;5050051;28;20021;-64
2022/02/17 01:27:39;;;;;;;14.00;6.85;;;;;;;;;;5049672;28;20036;-63
2022/02/17 01:30:05;;;;;;;15.38;7.07;;;;;;;;;;5050698;28;20025;-64
2022/02/17 01:32:31;;;;;;;17.20;6.35;;;;;;;;;;5052235;28;20120;-65
2022/02/17 01:34:58;;;;;;;16.10;7.00;;;;;;;;;;5052051;28;20036;-64
2022/02/17 01:37:24;;;;;;;21.52;6.90;;;;;;;;;;5070644;28;20112;-64
2022/02/17 01:39:50;;;;;;;18.65;6.53;;;;;;;;;;5070959;28;20036;-64
2022/02/17 01:42:16;;;;;;;19.02;6.97;;;;;;;;;;5070585;28;20025;-64
2022/02/17 01:44:42;;;;;;;16.77;5.88;;;;;;;;;;5051919;28;20036;-64
2022/02/17 01:47:09;;;;;;;16.10;6.18;;;;;;;;;;5070518;28;20025;-64
2022/02/17 01:49:35;;;;;;;17.33;6.30;;;;;;;;;;5070326;28;20048;-64
2022/02/17 01:52:01;;;;;;;17.25;5.80;;;;;;;;;;5070426;28;20035;-64
2022/02/17 01:54:27;;;;;;;15.10;5.53;;;;;;;;;;5069634;28;20153;-65
2022/02/17 01:56:55;;;;;;;16.55;5.65;;;;;;;;;;5070691;28;20384;-64
2022/02/17 01:59:20;;;;;;;18.00;6.15;;;;;;;;;;5070428;28;20373;-64
2022/02/17 02:01:46;;;;;;;18.02;5.90;;;;;;;;;;5070375;28;20055;-64
2022/02/17 02:04:12;;;;;;;23.88;16.05;;;;;;;;;;5069527;28;20484;-62
2022/02/17 02:06:38;;;;;;;29.75;26.88;;;;;;;;;;5053304;28;20119;-63
2022/02/17 02:09:05;;;;;;;29.90;27.38;;;;;;;;;;5073032;28;20500;-63
2022/02/17 02:11:31;;;;;;;32.35;29.50;;;;;;;;;;5072662;28;20028;-62
2022/02/17 02:13:57;;;;;;;31.60;29.13;;;;;;;;;;5070974;28;20038;-62
2022/02/17 02:16:23;;;;;;;30.67;28.27;;;;;;;;;;5057016;28;20021;-63
2022/02/17 02:18:49;;;;;;;30.75;28.15;;;;;;;;;;5074279;28;20027;-63
2022/02/17 02:21:15;;;;;;;29.63;26.92;;;;;;;;;;5074310;28;20024;-63
2022/02/17 02:23:41;;;;;;;30.30;27.38;;;;;;;;;;5073941;28;20021;-64
2022/02/17 02:26:07;;;;;;;26.75;24.23;;;;;;;;;;5055351;28;20133;-64
2022/02/17 02:28:34;;;;;;;24.88;22.48;;;;;;;;;;5073981;28;20396;-62
2022/02/17 02:31:00;;;;;;;22.83;19.63;;;;;;;;;;5074002;28;20419;-63
2022/02/17 02:33:26;;;;;;;23.63;19.55;;;;;;;;;;5073634;28;20025;-64
2022/02/17 02:35:53;;;;;;;23.38;18.63;;;;;;;;;;5073391;28;20048;-63
2022/02/17 02:38:20;;;;;;;21.60;18.02;;;;;;;;;;5074746;28;20445;-64
2022/02/17 02:40:46;;;;;;;21.95;14.55;;;;;;;;;;5074238;28;20184;-64
2022/02/17 02:43:12;;;;;;;17.17;9.30;;;;;;;;;;5072501;28;20021;-64
2022/02/17 02:45:39;;;;;;;21.05;9.60;;;;;;;;;;5072883;28;20050;-64
2022/02/17 02:48:09;;;;;;;21.50;8.43;;;;;;;;;;5056011;28;20431;-64
2022/02/17 02:50:35;;;;;;;12.55;6.30;;;;;;;;;;5073781;28;20477;-65
2022/02/17 02:53:01;;;;;;;18.10;6.10;;;;;;;;;;5056005;28;20017;-65
2022/02/17 02:55:28;;;;;;;20.63;8.52;;;;;;;;;;5055091;28;20032;-65
2022/02/17 02:57:53;;;;;;;15.70;6.55;;;10.40;99.90;;;;;;5055250;28;20571;-65
2022/02/17 03:00:19;;;;;;;19.58;5.70;;;10.30;99.90;;;;;;5055298;28;20115;-64
2022/02/17 03:02:44;;;;;;;19.33;5.70;;;10.20;99.90;;;;;;5073244;28;20028;-65
2022/02/17 03:05:11;;;;;;;19.85;6.03;;;;;;;;;;5072955;28;20027;-66
2022/02/17 03:07:38;;;;;;;18.30;6.10;;;10.50;99.90;;;;;;5073866;28;20025;-66
2022/02/17 03:10:05;;;;;;;17.60;6.40;;;10.50;99.90;;;;;;5055561;28;20024;-66
2022/02/17 03:12:32;;;;;;;16.75;6.20;;;10.50;99.90;;;;;;5073375;28;20028;-66
2022/02/17 03:14:58;;;;;;;19.27;5.95;;;10.40;99.90;;;;;;5072709;28;20025;-66
2022/02/17 03:17:24;;;;;;;21.73;6.22;;;10.40;99.90;;;;;;5073282;28;20028;-66
2022/02/17 03:19:49;;;;;;;19.23;5.95;;;10.30;99.90;;;;;;5073218;28;20533;-65
2022/02/17 03:22:15;;;;;;;18.20;5.85;;;10.20;99.90;;;;;;5055020;28;20025;-64
2022/02/17 03:24:41;;;;;;;16.30;6.38;;;10.30;99.90;;;;;;5071913;28;20082;-64
2022/02/17 03:27:06;;;;;;;13.85;5.47;;;10.50;99.90;;;;;;5071761;28;20434;-64
2022/02/17 03:29:32;;;;;;;19.73;7.55;;;10.50;99.90;;;;;;5072808;28;20028;-65
2022/02/17 03:31:57;;;;;;;16.33;6.07;;;10.40;99.90;;;;;;5073073;28;20035;-64
2022/02/17 03:34:24;;;;;;;19.75;6.75;;;10.40;99.90;;;;;;5071857;28;20111;-64
2022/02/17 03:36:50;;;;;;;21.27;5.90;;;10.40;99.90;;;;;;5054772;28;20021;-65
2022/02/17 03:39:16;;;;;;;18.23;6.63;;;10.50;99.90;;;;;;5072594;28;20024;-64
2022/02/17 03:41:41;;;;;;;15.00;6.10;;;10.50;99.90;;;;;;5054585;28;20040;-64
2022/02/17 03:44:07;;;;;;;16.33;6.30;;;10.50;99.90;;;;;;5071580;28;20888;-64
2022/02/17 03:46:32;;;;;;;24.38;13.52;;;10.60;99.90;;;;;;5072331;28;20024;-63
2022/02/17 03:48:58;;;;;;;18.38;10.48;;;9.60;99.90;;;;;;5072926;28;20067;-64
2022/02/17 03:51:24;;;;;;;18.83;14.30;;;8.90;99.90;;;;;;5073170;28;20069;-64
2022/02/17 03:53:49;;;;;;;26.77;24.27;;;8.60;99.90;;;;;;5073392;28;20036;-62
2022/02/17 03:56:15;;;;;;;25.23;22.75;;;7.70;99.90;;;;;;5079441;28;20074;-63
2022/02/17 04:01:24;;;;;;;29.98;27.30;;;7.60;99.90;;;;;;5074025;28;20036;-62
2022/02/17 04:03:50;;;;;;;24.83;22.15;;;7.70;99.90;;;;;;5072778;28;20032;-60
2022/02/17 04:06:15;;;;;;;25.40;17.65;;;7.90;99.90;;;;;;5072861;28;20044;-61
2022/02/17 04:08:41;;;;;;;20.77;15.40;;;7.80;99.90;;;;;;5072887;28;20017;-62
2022/02/17 04:11:07;;;;;;;19.55;14.43;;;7.90;99.90;;;;;;5074662;28;20039;-62
2022/02/17 04:13:34;;;;;;;20.98;14.10;;;7.90;99.90;;;;;;5081954;28;20024;-65
2022/02/17 04:15:59;;;;;;;25.63;13.30;;;8.10;99.90;;;;;;5081036;28;20469;-61
2022/02/17 04:18:25;;;;;;;21.65;12.35;;;8.50;99.90;;;;;;5080773;28;20033;-62
2022/02/17 04:20:51;;;;;;;24.55;12.85;;;8.90;99.90;;;;;;5064023;28;20442;-62
2022/02/17 04:23:16;;;;;;;17.42;10.18;;;9.00;99.90;;;;;;5080436;28;20081;-62
2022/02/17 04:25:42;;;;;;;22.20;9.90;;;9.00;99.90;;;;;;5079882;28;20384;-62
2022/02/17 04:28:08;;;;;;;21.38;10.05;;;9.00;99.90;;;;;;5081996;28;20107;-62
2022/02/17 04:30:33;;;;;;;24.90;10.40;;;9.00;99.90;;;;;;5062034;28;20027;-64
2022/02/17 04:33:03;;;;;;;23.45;9.68;;;9.00;99.90;;;;;;5062772;28;20024;-65
2022/02/17 04:35:29;;;;;;;21.60;9.93;;;8.80;99.90;;;;;;5081068;28;20020;-62
2022/02/17 04:37:56;;;;;;;19.10;9.45;;;8.70;99.90;;;;;;5061517;28;20404;-63
2022/02/17 04:42:18;;;;;;;26.63;11.60;;;8.60;99.90;;;;;;5061983;28;20024;-63
2022/02/17 04:43:07;;;;;;;18.63;10.48;;;8.40;99.90;;;;;;5080850;28;20472;-62
2022/02/17 04:45:32;;;;;;;23.80;9.60;;;8.40;99.90;;;;;;5079285;28;20111;-63
2022/02/17 04:48:01;;;;;;;20.67;9.48;;;8.60;99.90;;;;;;5080589;28;20027;-63
2022/02/17 04:50:27;;;;;;;22.10;9.38;;;8.70;99.90;;;;;;5061806;28;20069;-64
2022/02/17 04:52:53;;;;;;;25.10;9.15;;;8.80;99.90;;;;;;5052803;28;20032;-66
2022/02/17 04:55:18;;;;;;;19.65;8.38;;;8.90;99.90;;;;;;5070247;28;20047;-63
2022/02/17 04:57:44;;;;;;;22.80;7.45;;;9.00;99.90;;;;;;5071032;28;20056;-62
2022/02/17 05:00:10;;;;;;;19.17;7.50;;;9.10;99.90;;;;;;5073572;28;20050;-63
2022/02/17 05:02:36;;;;;;;17.17;6.63;;;9.20;99.90;;;;;;5073066;28;20028;-63
2022/02/17 05:05:02;;;;;;;22.38;6.70;;;9.10;99.90;;;;;;5069730;28;20051;-63
2022/02/17 05:07:27;;;;;;;17.00;6.57;;;9.10;99.90;;;;;;5052597;28;20028;-64
2022/02/17 05:09:53;;;;;;;19.88;7.78;;;9.10;99.90;;;;;;5070888;28;20376;-64
2022/02/17 05:12:19;;;;;;;18.67;6.28;;;9.20;99.90;;;;;;5070974;28;20051;-63
2022/02/17 05:14:44;;;;;;;20.38;6.28;;;9.10;99.90;;;;;;5070125;28;20477;-64
2022/02/17 05:17:10;;;;;;;17.65;6.95;;;9.00;99.90;;;;;;5070740;28;20107;-64
2022/02/17 05:19:36;;;;;;;15.70;6.65;;;8.90;99.90;;;;;;5070830;28;20028;-63
2022/02/17 05:22:02;;;;;;;22.52;6.60;;;8.90;99.90;;;;;;5052548;28;20171;-63
2022/02/17 05:24:28;;;;;;;21.95;8.05;;;9.00;99.90;;;;;;5069114;28;20063;-65
2022/02/17 05:26:54;;;;;;;16.17;6.57;;;8.70;99.90;;;;;;5070609;28;20036;-62
2022/02/17 05:29:19;;;;;;;20.90;7.82;;;8.70;99.90;;;;;;5070523;28;20060;-63
2022/02/17 05:31:45;;;;;;;25.33;8.60;;;8.60;99.90;;;;;;5070691;28;20043;-64
2022/02/17 05:34:11;;;;;;;22.98;8.32;;;8.60;99.90;;;;;;5069534;28;20059;-64
2022/02/17 05:36:36;;;;;;;17.30;6.55;;;8.50;99.90;;;;;;5070678;28;20465;-64
2022/02/17 05:39:04;;;;;;;21.77;7.75;;;8.60;99.90;;;;;;5070273;28;20025;-64
2022/02/17 05:41:29;;;;;;;23.02;8.55;;;8.70;99.90;;;;;;5070552;28;20404;-65
2022/02/17 05:43:56;;;;;;;25.58;8.18;;;8.50;99.90;;;;;;5069939;28;20021;-64
2022/02/17 05:46:22;;;;;;;20.73;9.90;;;8.20;99.90;;;;;;5070160;28;20085;-64
2022/02/17 05:48:47;;;;;;;24.42;14.10;;;7.80;99.90;;;;;;5070738;28;20032;-63
2022/02/17 05:51:17;;;;;;;23.63;12.13;;;7.60;99.90;;;;;;5075163;28;20017;-63
2022/02/17 05:53:43;;;;;;;18.67;10.48;;;7.60;99.90;;;;;;5074885;28;20463;-62
2022/02/17 05:56:09;;;;;;;21.42;10.80;;;7.70;99.90;;;;;;5074115;28;20103;-64
2022/02/17 05:58:34;;;;;;;24.05;10.93;;;7.80;99.90;;;;;;5075432;28;20028;-63
2022/02/17 06:01:00;;;;;;;20.20;9.73;;;8.00;99.90;;;;;;5074906;28;20033;-62
2022/02/17 06:03:26;;;;;;;23.77;9.98;;;8.10;99.90;;;;;;5074564;28;20044;-61
2022/02/17 06:05:52;;;;;;;23.38;8.90;;;8.30;99.90;;;;;;5055595;28;20072;-64
2022/02/17 06:08:17;;;;;;;24.60;9.60;;;8.40;99.90;;;;;;5056961;28;20384;-60
2022/02/17 06:10:43;;;;;;;27.40;8.90;;;8.50;99.90;;;;;;5074688;28;20055;-61
2022/02/17 06:13:09;;;;;;;20.10;7.97;;;8.70;99.90;;;;;;5056406;28;20032;-63
2022/02/17 06:15:36;;;;;;;19.15;6.43;;;8.70;99.90;;;;;;5073576;28;20031;-64
2022/02/17 06:18:02;;;;;;;24.65;8.57;;;8.80;99.90;;;;;;5074148;28;20070;-64
2022/02/17 06:20:28;;;;;;;19.02;6.25;;;8.90;99.90;;;;;;5073956;28;20201;-63
2022/02/17 06:22:53;;;;;;;18.30;7.05;;;9.00;99.90;;;;;;5073787;28;20510;-64
2022/02/17 06:25:19;;;;;;;20.10;7.47;;;9.00;99.90;;;;;;5072972;28;20099;-64
2022/02/17 06:27:46;;;;;;;23.13;6.75;;;9.00;99.90;;;;;;5073841;28;20033;-64
2022/02/17 06:30:12;;;;;;;19.77;7.78;;;9.10;99.90;;;;;;5073352;28;20439;-63
2022/02/17 06:35:07;;;;;;;22.20;7.63;;;9.20;99.90;;;;;;5111731;22;20210;-51
2022/02/17 06:37:33;;;;;;;18.38;7.13;;;9.10;99.90;;;;;;5094792;28;20448;-52
2022/02/17 06:39:58;;;;;;;21.75;6.80;;;9.20;99.90;;;;;;5094773;28;20020;-52
2022/02/17 06:42:24;;;;;;;21.52;7.28;;;9.10;99.90;;;;;;5076574;28;20030;-53
2022/02/17 06:44:50;;;;;;;16.23;7.28;;;9.10;99.90;;;;;;5093976;28;20471;-53
2022/02/17 06:47:15;;;;;;;17.38;7.10;;;9.10;99.90;;;;;;5094488;28;20572;-57
2022/02/17 06:49:41;;;;;;;14.18;6.22;;;9.00;99.90;;;;;;5076549;28;20499;-55
2022/02/17 06:52:07;;;;;;;20.67;6.82;;;9.00;99.90;;;;;;5076411;28;20123;-54
2022/02/17 06:54:32;;;;;;;20.48;6.07;;;9.00;99.90;;;;;;5093990;28;20028;-53
2022/02/17 06:56:58;;;;;;;22.83;7.35;;;9.00;99.90;;;;;;5076847;28;20024;-55
2022/02/17 06:59:23;;;;;;;18.42;6.32;;;9.00;99.90;;;;;;5076386;28;20138;-54
2022/02/17 07:01:49;;;;;;;17.67;5.93;;;9.00;99.90;;;;;;5094429;28;20478;-54
2022/02/17 07:04:14;;;;;;;13.23;5.40;;;8.90;99.90;;;;;;5093636;28;20047;-51
2022/02/17 07:06:42;;;;;;;14.80;6.15;;;8.80;99.90;;;;;;5094445;28;20456;-56
2022/02/17 07:09:08;;;;;;;17.37;5.60;;;8.80;99.90;;;;;;5094616;28;20035;-55
2022/02/17 07:11:33;;;;;;;17.02;7.07;;;8.80;99.90;;;;;;5075999;28;20450;-54
2022/02/17 07:13:59;;;;;;;18.77;6.30;;;8.80;99.90;;;;;;5093828;28;20490;-52
2022/02/17 07:16:25;;;;;;;17.80;6.75;;;8.70;99.90;;;;;;5094327;28;20500;-55
2022/02/17 07:18:51;;;;;;;20.73;6.30;;;8.70;99.90;;;;;;5094317;28;20024;-55
2022/02/17 07:21:16;;;;;;;14.02;5.68;;;8.70;99.90;;;;;;5094426;28;20036;-54
2022/02/17 07:23:42;;;;;;;19.95;6.20;;;8.70;99.90;;;;;;5093936;28;20039;-55
2022/02/17 07:26:07;;;;;;;16.15;5.82;;;8.60;99.90;;;;;;5093614;28;20024;-55
2022/02/17 07:28:35;;;;;;;12.88;5.45;;;8.60;99.90;;;;;;5075863;28;20032;-53
2022/02/17 07:31:00;;;;;;;13.30;5.70;;;8.60;99.90;;;;;;5094291;28;20035;-54
2022/02/17 07:33:26;;;;;;;13.88;6.28;;;8.70;99.90;;;;;;5075738;28;20032;-51
2022/02/17 07:35:51;;;;;;;16.80;5.60;;;8.70;99.90;;;;;;5093476;28;20071;-51
2022/02/17 07:38:17;;;;;;;23.60;6.82;;;8.60;99.90;;;;;;5076150;28;20016;-53
2022/02/17 07:40:43;;;;;;;14.02;5.75;;;8.60;99.90;;;;;;5094121;28;20024;-51
2022/02/17 07:43:10;;;;;;;19.33;6.10;;;8.60;99.90;;;;;;5093815;28;20040;-51
2022/02/17 07:45:36;;;;;;;13.50;5.25;;;8.60;99.90;;;;;;5075215;28;20028;-56
2022/02/17 07:48:03;;;;;;;13.98;6.00;;;8.60;99.90;;;;;;5093550;28;20073;-53
2022/02/17 07:50:29;;;;;;;14.43;6.10;;;8.60;99.90;;;;;;5093873;28;20024;-56
2022/02/17 07:52:55;;;;;;;17.17;6.90;;;8.60;99.90;;;;;;5093535;28;20419;-52
2022/02/17 07:55:21;;;;;;;16.60;6.55;;;8.70;99.90;;;;;;5075121;28;20096;-53
2022/02/17 07:57:47;;;;;;;16.85;5.97;;;8.80;99.90;;;;;;5094428;28;20055;-55
2022/02/17 08:00:13;;;;;;;18.77;6.00;;;8.70;99.90;;;;;;5093801;28;20040;-51
2022/02/17 08:02:40;;;;;;;13.05;5.40;;;8.80;99.90;;;;;;5094265;28;20395;-51
2022/02/17 08:05:07;;;;;;;14.30;5.45;;;9.00;99.90;;;;;;5092990;28;20024;-50
2022/02/17 08:07:32;;;;;;;16.92;5.80;;;8.80;99.90;;;;;;5096920;28;20023;-53
2022/02/17 08:09:58;;;;;;;14.15;5.05;;;8.50;99.90;;;;;;5096483;28;20016;-51
2022/02/17 08:12:24;;;;;;;20.45;5.80;;;8.50;99.90;;;;;;5095557;28;20016;-55
2022/02/17 08:14:50;;;;;;;18.52;6.78;;;8.40;99.90;;;;;;5095107;28;20505;-53
2022/02/17 08:17:15;;;;;;;20.83;6.20;;;8.40;99.90;;;;;;5096395;28;20450;-56
2022/02/17 08:19:41;;;;;;;13.20;5.60;;;8.50;99.90;;;;;;5095172;28;20020;-53
2022/02/17 08:22:06;;;;;;;18.75;6.07;;;8.50;99.90;;;;;;5092964;28;20103;-51
2022/02/17 08:24:32;;;;;;;20.90;5.90;;;8.50;99.90;;;;;;5092336;28;20020;-52
2022/02/17 08:26:57;;;;;;;23.77;11.65;;;8.60;99.90;;;;;;5093544;28;20468;-59
2022/02/17 08:29:24;;;;;;;16.92;6.55;;;8.60;99.90;;;;;;5092611;28;20111;-54
2022/02/17 08:31:50;;;;;;;16.50;5.65;;;8.70;99.90;;;;;;5086632;28;20039;-55
2022/02/17 08:34:17;;;;;;;14.55;5.32;;;8.70;99.90;;;;;;5089937;28;20052;-54
2022/02/17 08:36:43;;;;;;;14.55;5.60;;;8.70;99.90;;;;;;5092442;28;20107;-53
2022/02/17 08:39:09;;;;;;;19.55;5.85;;;8.80;99.90;;;;;;5092168;28;20548;-53
2022/02/17 08:41:36;;;;;;;16.33;6.22;;;9.00;99.90;;;;;;5092470;28;20020;-52
2022/02/17 08:44:02;;;;;;;13.02;5.70;;;9.30;99.90;;;;;;5091223;28;20115;-56
2022/02/17 08:46:28;;;;;;;10.90;5.13;;;9.10;99.90;;;;;;5091861;28;20020;-50
2022/02/17 08:48:53;;;;;;;11.38;5.45;;;8.80;99.90;;;;;;5092017;28;20388;-53
2022/02/17 08:51:22;;;;;;;13.75;6.57;;;7.90;99.90;;;;;;5092311;28;20027;-53
2022/02/17 08:53:48;;;;;;;19.13;6.97;;;7.40;99.90;;;;;;5092374;28;20013;-56
2022/02/17 08:56:13;;;;;;;15.38;6.05;;;7.20;99.90;;;;;;5092036;28;20398;-54
2022/02/17 08:58:39;;;;;;;16.83;5.63;;;7.30;99.90;;;;;;5092017;28;20020;-52
2022/02/17 09:01:05;;;;;;;18.02;5.78;;;7.60;99.90;;;;;;5092478;28;20028;-55
2022/02/17 09:03:31;;;;;;;15.85;5.85;;;7.80;99.90;;;;;;5091708;28;20410;-53
2022/02/17 09:05:57;;;;;;;17.00;5.55;;;7.90;99.90;;;;;;5091516;28;20040;-53
2022/02/17 09:08:22;;;;;;;16.30;6.07;;;8.00;99.90;;;;;;5097302;28;20035;-57
2022/02/17 09:10:48;;;;;;;19.02;5.93;;;8.30;99.90;;;;;;5102340;28;20463;-53
2022/02/17 09:13:15;;;;;;;13.32;5.55;;;8.50;99.90;;;;;;5101012;28;20073;-55
2022/02/17 09:15:40;;;;;;;14.85;5.38;;;8.50;99.90;;;;;;5101389;28;20031;-56
2022/02/17 09:18:06;;;;;;;14.70;5.80;;;8.60;99.90;;;;;;5111910;28;20391;-57
2022/02/17 09:20:32;;;;;;;11.05;5.18;;;8.70;99.90;;;;;;5093995;28;20016;-57
2022/02/17 09:22:59;;;;;;;14.93;5.75;;;8.80;99.90;;;;;;5100537;28;20039;-59
2022/02/17 09:25:24;;;;;;;17.20;6.00;;;8.90;99.90;;;;;;5080202;28;20122;-59
2022/02/17 09:27:50;;;;;;;14.85;6.00;;;9.00;99.90;;;;;;5064816;28;20107;-60
2022/02/17 09:30:16;;;;;;;15.68;5.90;;;9.00;99.90;;;;;;5090342;28;20039;-54
2022/02/17 09:32:42;;;;;;;15.02;6.03;;;9.00;99.90;;;;;;5081844;28;20277;-57
2022/02/17 09:35:11;;;;;;;14.63;5.75;;;9.10;99.90;;;;;;5082527;28;20020;-57
2022/02/17 09:37:37;;;;;;;16.65;6.18;;;9.10;99.90;;;;;;5082557;28;20415;-54
2022/02/17 09:40:04;;;;;;;14.77;6.20;;;9.20;99.90;;;;;;5080080;28;20472;-54
2022/02/17 09:42:36;;;;;;;16.35;6.50;;;9.30;99.90;;;;;;5082140;28;20024;-55
2022/02/17 09:45:04;;;;;;;20.17;6.63;;;9.50;99.90;;;;;;5063210;28;20077;-52
2022/02/17 09:47:29;;;;;;;16.30;7.80;;;9.40;99.90;;;;;;5062738;28;20025;-65
2022/02/17 09:49:56;;;;;;;15.45;7.25;;;9.30;99.90;;;;;;5079231;28;20472;-52
2022/02/17 09:52:22;;;;;;;14.32;6.18;;;9.40;99.90;;;;;;5072416;28;20453;-54
2022/02/17 09:54:48;;;;;;;14.95;6.53;;;9.20;99.90;;;;;;5080003;28;20031;-55
2022/02/17 09:57:23;;;;;;;15.02;6.35;;;9.20;99.90;;;;;;5091721;28;20030;-57
2022/02/17 09:59:49;;;;;;;16.05;6.20;;;9.30;99.90;;;;;;5091632;28;20495;-52
2022/02/17 10:02:22;;;;;;;13.35;5.82;;;9.30;99.90;;;;;;5073400;28;20028;-58
2022/02/17 10:04:54;;;;;;;15.55;6.60;;;9.60;99.90;;;;;;5090867;28;20059;-55
2022/02/17 10:07:40;;;;;;;14.77;6.28;;;9.50;99.90;;;;;;5089270;28;20028;-56
2022/02/17 10:10:07;;;;;;;18.35;6.82;;;9.20;99.90;;;;;;5071579;28;20024;-56
2022/02/17 10:12:56;;;;;;;17.38;6.18;;;9.00;99.90;;;;;;5063855;28;20056;-54
2022/02/17 10:15:51;;;;;;;15.65;5.97;;;9.00;99.90;;;;;;5070989;28;20029;-56
2022/02/17 10:18:19;;;;;;;17.40;6.63;;;9.00;99.90;;;;;;5051954;28;20033;-55
2022/02/17 10:20:53;;;;;;;17.25;6.10;;;9.00;99.90;;;;;;5071394;28;20025;-58
2022/02/17 10:23:23;;;;;;;15.65;6.65;;;9.20;99.90;;;;;;5071910;28;20032;-57
2022/02/17 10:26:00;;;;;;;15.15;6.05;;;9.40;99.90;;;;;;5070888;28;20025;-56
2022/02/17 10:28:26;;;;;;;18.83;6.97;;;9.40;99.90;;;;;;5070988;28;20028;-53
2022/02/17 10:30:52;;;;;;;14.23;6.10;;;9.40;99.90;;;;;;5080641;28;20024;-55
2022/02/17 10:33:18;;;;;;;14.65;6.45;;;9.50;99.90;;;;;;5089369;28;20456;-60
2022/02/17 10:35:55;;;;;;;20.13;7.82;;;9.50;99.90;;;;;;5091210;28;20444;-58
2022/02/17 10:38:22;;;;;;;15.07;6.47;;;9.50;99.90;;;;;;5093735;28;20012;-57
2022/02/17 10:40:54;;;;;;;15.88;6.70;;;9.50;99.90;;;;;;5094004;28;20035;-59
2022/02/17 10:43:21;;;;;;;16.83;7.00;;;9.60;99.90;;;;;;5093419;28;20051;-61
2022/02/17 10:45:50;;;;;;;17.83;6.57;;;9.60;99.90;;;;;;5093427;28;20059;-61
2022/02/17 10:48:26;;;;;;;15.18;6.35;;;9.60;99.90;;;;;;5095609;28;20119;-61
2022/02/17 10:51:11;;;;;;;16.27;6.18;;;9.40;99.90;;;;;;5095396;28;20434;-61
2022/02/17 10:53:43;;;;;;;16.77;6.47;;;9.70;99.90;;;;;;5095273;28;20040;-61
2022/02/17 10:56:21;;;;;;;16.08;6.47;;;9.60;99.90;;;;;;5094308;28;20468;-57
2022/02/17 10:58:47;;;;;;;15.27;6.68;;;9.50;99.90;;;;;;5077014;28;20062;-58
2022/02/17 11:01:15;;;;;;;14.52;5.88;;;9.50;99.90;;;;;;5076879;28;20028;-61
2022/02/17 11:03:42;;;;;;;15.63;5.97;;;9.70;99.90;;;;;;5095251;28;20032;-58
2022/02/17 11:06:10;;;;;;;12.38;6.05;;;9.90;99.90;;;;;;5087540;28;20020;-60
2022/02/17 11:08:36;;;;;;;;;;;9.70;99.90;;;;;;5075295;28;20032;-61
2022/02/17 11:11:03;;;;;;;15.52;6.53;;;9.90;99.90;;;;;;5056749;28;19969;-59
2022/02/17 11:13:30;;;;;;;18.02;6.60;;;10.10;99.90;;;;;;5074844;28;20107;-62
2022/02/17 11:15:58;;;;;;;15.70;6.40;;;9.90;99.90;;;;;;5075005;28;20024;-61
2022/02/17 11:18:24;;;;;;;16.45;7.07;;;10.00;99.90;;;;;;5074357;28;20027;-60
2022/02/17 11:20:53;;;;;;;14.88;6.65;;;10.10;99.90;;;;;;5074623;28;20032;-59
2022/02/17 11:23:19;;;;;;;;;;;10.50;99.90;;;;;;5074625;28;20024;-60
2022/02/17 11:25:46;;;;;;;18.23;7.05;;;11.00;99.90;;;;;;5055634;28;20007;-61
2022/02/17 11:28:14;;;;;;;21.02;7.68;;;10.80;99.90;;;;;;5074290;28;20036;-59
2022/02/17 11:30:55;;;;;;;15.73;7.03;;;10.80;99.90;;;;;;5073973;28;20469;-62
2022/02/17 11:33:25;;;;;;;17.23;6.88;;;11.00;99.90;;;;;;5078745;28;20039;-57
2022/02/17 11:35:52;;;;;;;15.70;6.72;;;10.70;99.90;;;;;;5093464;28;20485;-59
2022/02/17 11:38:30;;;;;;;17.08;8.00;;;10.90;99.90;;;;;;5094352;28;20377;-61
2022/02/17 11:41:11;;;;;;;15.45;7.30;;;11.00;99.90;;;;;;5094394;28;20111;-60
2022/02/17 11:43:41;;;;;;;14.90;7.00;;;11.00;99.90;;;;;;5094371;28;20024;-61
2022/02/17 11:46:09;;;;;;;18.73;7.68;;;11.20;99.90;;;;;;5093193;28;20122;-61
2022/02/17 11:48:38;;;;;;;15.20;6.60;;;11.20;99.90;;;;;;5093328;28;20032;-60
2022/02/17 11:51:19;;;;;;;20.40;6.82;;;10.90;99.90;;;;;;5094089;28;20024;-62
2022/02/17 11:53:50;;;;;;;16.73;7.90;;;11.00;99.90;;;;;;5093885;28;20020;-61
2022/02/17 11:56:15;;;;;;;16.15;7.00;;;11.40;99.90;;;;;;5094379;28;20099;-57
2022/02/17 11:58:45;;;;;;;18.55;7.05;;;11.10;99.90;;;;;;5094284;28;20047;-62
2022/02/17 12:01:25;;;;;;;16.50;7.00;;;11.00;99.90;;;;;;5094272;28;20278;-61
2022/02/17 12:04:14;;;;;;;15.50;6.60;;;11.50;99.80;;;;;;5074948;28;20020;-60
2022/02/17 12:06:45;;;;;;;16.70;6.57;;;11.60;99.90;;;;;;5093880;28;20107;-62
2022/02/17 12:09:43;;;;;;;14.27;6.15;;;11.40;99.90;;;;;;5093845;28;20024;-62
2022/02/17 12:12:12;;;;;;;16.73;6.68;;;11.00;99.90;;;;;;5093721;28;20107;-64
2022/02/17 12:14:38;;;;;;;17.00;7.95;;;10.70;99.90;;;;;;5074739;28;20446;-61
2022/02/17 12:17:05;;;;;;;17.70;7.20;;;10.30;99.90;;;;;;5092934;28;20027;-59
2022/02/17 12:19:33;;;;;;;15.95;7.07;;;10.40;99.90;;;;;;5093827;28;20020;-62
2022/02/17 12:22:10;;;;;;;14.80;7.25;;;11.10;99.90;;;;;;5075428;28;20054;-58
2022/02/17 12:24:42;;;;;;;14.65;6.93;;;11.90;99.20;;;;;;5092532;28;20507;-60
2022/02/17 12:27:12;;;;;;;15.38;7.18;;;12.50;98.60;;;;;;5093391;28;20028;-59
2022/02/17 12:29:42;;;;;;;16.23;7.03;;;12.10;98.00;;;;;;5093383;28;20073;-63
2022/02/17 12:32:15;;;;;;;15.25;6.78;;;12.00;98.80;;;;;;5092686;28;20453;-58
2022/02/17 12:34:41;;;;;;;17.88;8.00;;;12.30;98.10;;;;;;5105550;22;20044;-55
2022/02/17 12:37:18;;;;;;;15.35;7.22;;;12.50;98.00;;;;;;5093434;28;20027;-53
2022/02/17 12:39:45;;;;;;;15.88;6.90;;;12.70;98.00;;;;;;5092380;28;20027;-56
2022/02/17 12:42:11;;;;;;;13.90;7.03;;;13.00;97.30;;;;;;5074886;28;20032;-52
2022/02/17 12:44:39;;;;;;;13.98;7.10;;;12.40;97.00;;;;;;5092229;28;20471;-57
2022/02/17 12:47:07;;;;;;;13.67;7.00;;;12.50;97.20;;;;;;5075105;28;20035;-53
2022/02/17 12:49:34;;;;;;;14.05;6.75;;;12.60;97.40;;;;;;5093883;28;20071;-53
2022/02/17 12:52:07;;;;;;;16.40;7.57;;;12.60;96.90;;;;;;5074513;28;20038;-55
2022/02/17 12:54:33;;;;;;;19.77;8.82;;;12.60;96.80;;;;;;5073755;28;20024;-58
2022/02/17 12:57:15;;;;;;;18.30;6.95;;;13.20;96.70;;;;;;5092673;28;20020;-53
2022/02/17 12:59:42;;;;;;;18.08;6.72;;;13.00;96.40;;;;;;5092547;28;20031;-57
2022/02/17 13:02:08;;;;;;;15.95;6.90;;;12.10;96.90;;;;;;5092908;28;20031;-57
2022/02/17 13:04:33;;;;;;;16.15;6.72;;;11.50;97.70;;;;;;5091390;28;20028;-59
2022/02/17 13:07:00;;;;;;;16.65;7.00;;;10.80;99.00;;;;;;5093189;28;20028;-56
2022/02/17 13:09:29;;;;;;;16.95;7.57;;;10.50;99.90;;;;;;5092717;28;20034;-55
2022/02/17 13:11:56;;;;;;;22.88;8.38;;;10.50;99.10;;;;;;5092184;28;20020;-54